Time;durP1;ratioP1;P1;durP2;ratioP2;P2;SDS_P1;SDS_P2;PMS_P1;PMS_P2;Temp;Humidity;BMP_temperature;BMP_pressure;BME280_temperature;BME280_humidity;BME280_pressure;Samples;Min_cycle;Max_cycle;Signal;HPM_P1;HPM_P2
2021/05/08 00:00:11;;;;;;;12.70;9.80;;;6.70;82.80;;;;;;8322373;28;20524;-72
2021/05/08 00:04:17;;;;;;;12.17;9.57;;;6.80;82.60;;;;;;8306251;28;20267;-72
2021/05/08 00:08:18;;;;;;;13.90;10.80;;;6.70;82.70;;;;;;8324062;28;20438;-73
2021/05/08 00:12:18;;;;;;;12.53;9.33;;;6.70;82.50;;;;;;8325820;28;20453;-72
2021/05/08 00:16:19;;;;;;;12.00;9.77;;;6.70;82.20;;;;;;8304076;28;20208;-72
2021/05/08 00:20:20;;;;;;;12.60;9.53;;;6.70;82.10;;;;;;8319800;28;20808;-72
2021/05/08 00:24:23;;;;;;;17.53;10.17;;;6.60;81.60;;;;;;8302882;28;20639;-72
2021/05/08 00:28:26;;;;;;;13.00;8.50;;;6.60;81.70;;;;;;8306880;28;20195;-72
2021/05/08 00:32:27;;;;;;;14.13;9.60;;;6.60;82.70;;;;;;8325900;28;20953;-71
2021/05/08 00:36:27;;;;;;;16.63;9.17;;;6.50;82.10;;;;;;8321539;28;20830;-72
2021/05/08 00:40:28;;;;;;;12.27;10.07;;;6.40;82.40;;;;;;8306997;28;21053;-72
2021/05/08 00:44:29;;;;;;;14.10;9.70;;;6.40;82.70;;;;;;8305355;28;20679;-73
2021/05/08 00:48:31;;;;;;;12.23;9.70;;;6.40;82.50;;;;;;8306657;28;20201;-71
2021/05/08 00:52:32;;;;;;;15.33;9.53;;;6.50;82.40;;;;;;8324339;28;20265;-71
2021/05/08 00:56:33;;;;;;;9.90;8.87;;;6.60;82.10;;;;;;8321529;28;20518;-71
2021/05/08 01:00:35;;;;;;;13.90;10.23;;;6.70;81.80;;;;;;8328579;28;20283;-72
2021/05/08 01:04:36;;;;;;;13.83;10.57;;;6.70;82.10;;;;;;8301251;28;20191;-72
2021/05/08 01:08:37;;;;;;;13.50;10.10;;;6.60;83.50;;;;;;8324021;28;20449;-71
2021/05/08 01:12:39;;;;;;;14.70;9.97;;;6.40;85.20;;;;;;8304554;28;20456;-71
2021/05/08 01:16:40;;;;;;;18.00;11.47;;;6.10;86.40;;;;;;8316733;28;20474;-72
2021/05/08 01:20:42;;;;;;;15.37;10.47;;;5.90;87.20;;;;;;8318008;28;20458;-72
2021/05/08 01:24:42;;;;;;;12.50;9.30;;;5.80;87.00;;;;;;8320256;28;20218;-72
2021/05/08 01:28:43;;;;;;;15.47;9.90;;;5.90;86.30;;;;;;8296466;28;20493;-72
2021/05/08 01:32:45;;;;;;;13.60;9.27;;;5.90;85.50;;;;;;8297702;28;20194;-72
2021/05/08 01:36:45;;;;;;;16.47;10.90;;;6.00;85.60;;;;;;8299822;28;21068;-72
2021/05/08 01:40:46;;;;;;;12.57;9.67;;;6.00;85.30;;;;;;8300557;28;20438;-72
2021/05/08 01:44:49;;;;;;;18.93;11.33;;;6.00;85.10;;;;;;8325324;28;20209;-72
2021/05/08 01:48:50;;;;;;;13.07;8.40;;;6.00;85.20;;;;;;8316783;28;20628;-72
2021/05/08 01:52:51;;;;;;;14.70;10.50;;;5.80;85.70;;;;;;8306071;28;21277;-72
2021/05/08 01:56:51;;;;;;;16.40;11.00;;;5.70;86.90;;;;;;8308764;28;20228;-72
2021/05/08 02:00:52;;;;;;;11.60;9.50;;;5.60;87.50;;;;;;8319979;28;20182;-71
2021/05/08 02:04:53;;;;;;;16.60;11.43;;;5.40;88.10;;;;;;8304915;28;20189;-72
2021/05/08 02:08:53;;;;;;;11.73;10.13;;;5.30;89.10;;;;;;8306294;28;20491;-72
2021/05/08 02:12:54;;;;;;;12.07;9.13;;;5.40;89.10;;;;;;8321873;28;20188;-72
2021/05/08 02:16:54;;;;;;;12.70;10.63;;;5.90;87.00;;;;;;8306355;28;20764;-72
2021/05/08 02:20:55;;;;;;;10.73;8.67;;;6.20;85.40;;;;;;8307229;28;20187;-72
2021/05/08 02:24:56;;;;;;;12.33;7.70;;;6.30;85.20;;;;;;8301461;28;20180;-72
2021/05/08 02:28:56;;;;;;;9.73;8.03;;;6.30;85.30;;;;;;8299369;28;20180;-72
2021/05/08 02:32:58;;;;;;;8.53;7.40;;;6.20;86.20;;;;;;8306848;28;20263;-72
2021/05/08 02:36:58;;;;;;;14.93;7.90;;;6.10;86.00;;;;;;8320813;28;20272;-73
2021/05/08 02:40:59;;;;;;;13.10;9.17;;;6.00;86.30;;;;;;8324394;28;20508;-72
2021/05/08 02:44:59;;;;;;;9.60;7.60;;;5.80;87.50;;;;;;8318168;28;20183;-72
2021/05/08 02:49:00;;;;;;;16.47;9.97;;;5.70;87.90;;;;;;8328612;28;20238;-72
2021/05/08 02:53:01;;;;;;;13.63;9.47;;;5.70;88.20;;;;;;8306936;28;20180;-72
2021/05/08 02:57:01;;;;;;;8.57;7.70;;;5.60;88.30;;;;;;8299614;28;20208;-71
2021/05/08 03:01:02;;;;;;;13.57;9.17;;;5.60;88.60;;;;;;8307823;28;20214;-72
2021/05/08 03:05:04;;;;;;;11.60;8.60;;;5.50;88.80;;;;;;8323965;28;20664;-72
2021/05/08 03:09:05;;;;;;;12.57;8.63;;;5.40;89.20;;;;;;8316759;28;20179;-72
2021/05/08 03:13:05;;;;;;;13.10;8.60;;;5.30;89.60;;;;;;8307242;28;20441;-72
2021/05/08 03:17:06;;;;;;;16.23;8.80;;;5.30;89.90;;;;;;8318792;28;20234;-73
2021/05/08 03:21:06;;;;;;;12.00;8.73;;;5.30;89.90;;;;;;8318188;28;20210;-72
2021/05/08 03:25:07;;;;;;;12.10;10.03;;;5.20;89.40;;;;;;8302290;28;20179;-71
2021/05/08 03:29:08;;;;;;;14.17;9.03;;;5.10;89.10;;;;;;8302704;28;20190;-72
2021/05/08 03:33:09;;;;;;;14.00;9.17;;;5.00;89.30;;;;;;8319557;28;20433;-72
2021/05/08 03:37:09;;;;;;;12.30;10.37;;;4.90;90.00;;;;;;8322182;28;20592;-72
2021/05/08 03:41:10;;;;;;;13.80;10.57;;;4.90;90.10;;;;;;8299209;28;20209;-72
2021/05/08 03:45:12;;;;;;;17.00;10.80;;;4.80;90.10;;;;;;8310095;28;20269;-72
2021/05/08 03:49:13;;;;;;;13.40;10.27;;;4.80;90.20;;;;;;8304897;28;20229;-72
2021/05/08 03:53:14;;;;;;;12.27;9.67;;;4.70;90.50;;;;;;8326751;28;20441;-72
2021/05/08 03:57:15;;;;;;;13.37;10.30;;;4.70;90.60;;;;;;8306591;28;20305;-72
2021/05/08 04:01:15;;;;;;;15.77;10.87;;;4.70;90.50;;;;;;8324428;28;20499;-73
2021/05/08 04:05:16;;;;;;;18.20;10.17;;;4.80;90.60;;;;;;8307415;28;20185;-70
2021/05/08 04:09:17;;;;;;;15.27;10.63;;;4.90;90.50;;;;;;8311728;28;20191;-72
2021/05/08 04:13:18;;;;;;;18.50;9.77;;;5.00;90.50;;;;;;8325507;28;20246;-72
2021/05/08 04:17:18;;;;;;;15.27;8.97;;;5.10;90.40;;;;;;8308351;28;20605;-72
2021/05/08 04:21:19;;;;;;;12.53;8.00;;;5.30;89.40;;;;;;8304280;28;20183;-72
2021/05/08 04:25:20;;;;;;;12.43;9.20;;;5.40;89.10;;;;;;8319266;28;20182;-72
2021/05/08 04:29:20;;;;;;;12.33;9.27;;;5.40;89.10;;;;;;8329263;28;20183;-72
2021/05/08 04:33:21;;;;;;;13.77;10.13;;;5.40;89.30;;;;;;8317628;28;20191;-73
2021/05/08 04:37:22;;;;;;;9.43;8.50;;;5.50;89.10;;;;;;8319616;28;20211;-73
2021/05/08 04:41:23;;;;;;;13.57;8.90;;;5.50;88.70;;;;;;8319496;28;20462;-72
2021/05/08 04:45:26;;;;;;;11.13;8.77;;;5.70;88.70;;;;;;8299539;28;20190;-73
2021/05/08 04:49:27;;;;;;;12.37;8.37;;;5.80;88.00;;;;;;8327545;28;20199;-72
2021/05/08 04:53:28;;;;;;;8.97;7.80;;;6.00;87.60;;;;;;8305628;28;20446;-73
2021/05/08 04:57:29;;;;;;;12.60;8.37;;;6.20;87.10;;;;;;8322804;28;20210;-72
2021/05/08 05:01:30;;;;;;;9.93;8.30;;;6.30;86.60;;;;;;8308060;28;20516;-72
2021/05/08 05:05:31;;;;;;;12.97;8.57;;;6.50;86.20;;;;;;8310374;28;20218;-72
2021/05/08 05:09:33;;;;;;;10.80;7.10;;;6.70;85.90;;;;;;8308538;28;20455;-72
2021/05/08 05:13:34;;;;;;;12.60;7.60;;;7.00;85.40;;;;;;8322135;28;20188;-72
2021/05/08 05:17:34;;;;;;;9.60;7.40;;;7.30;84.80;;;;;;8311516;28;20516;-72
2021/05/08 05:21:35;;;;;;;12.40;7.57;;;7.80;83.70;;;;;;8303025;28;20190;-72
2021/05/08 05:25:36;;;;;;;7.27;6.40;;;8.30;82.50;;;;;;8322413;28;20202;-71
2021/05/08 05:29:36;;;;;;;7.93;6.63;;;8.80;80.80;;;;;;8305824;28;20186;-73
2021/05/08 05:33:37;;;;;;;7.43;5.80;;;9.40;77.30;;;;;;8325195;28;20444;-72
2021/05/08 05:37:38;;;;;;;10.43;5.90;;;10.00;74.10;;;;;;8303151;28;20218;-72
2021/05/08 05:41:41;;;;;;;12.30;6.13;;;10.50;72.00;;;;;;8303577;28;20206;-72
2021/05/08 05:45:41;;;;;;;8.57;5.50;;;10.80;68.90;;;;;;8322686;28;20186;-72
2021/05/08 05:49:42;;;;;;;9.10;5.57;;;11.10;66.80;;;;;;8324398;28;20486;-72
2021/05/08 05:53:43;;;;;;;8.90;5.50;;;11.30;66.70;;;;;;8304692;28;20529;-73
2021/05/08 05:57:48;;;;;;;7.63;5.20;;;11.50;65.20;;;;;;8324665;28;20341;-72
2021/05/08 06:01:48;;;;;;;8.70;5.37;;;11.60;64.30;;;;;;8318217;28;20267;-71
2021/05/08 06:05:49;;;;;;;7.53;4.77;;;11.80;63.40;;;;;;8316824;28;20450;-71
2021/05/08 06:09:49;;;;;;;11.13;6.23;;;12.00;62.30;;;;;;8300043;28;20184;-71
2021/05/08 06:13:50;;;;;;;7.40;4.37;;;12.20;61.80;;;;;;8319672;28;20188;-71
2021/05/08 06:17:51;;;;;;;8.27;4.93;;;12.70;60.90;;;;;;8306422;28;20239;-71
2021/05/08 06:21:52;;;;;;;8.60;5.10;;;13.10;59.20;;;;;;8301057;28;20212;-72
2021/05/08 06:25:53;;;;;;;6.87;5.23;;;13.40;58.30;;;;;;8319923;28;20190;-71
2021/05/08 06:29:54;;;;;;;8.70;5.37;;;13.50;58.40;;;;;;8309609;28;20448;-71
2021/05/08 06:33:55;;;;;;;8.10;5.53;;;13.70;56.20;;;;;;8323666;28;20180;-72
2021/05/08 06:37:56;;;;;;;12.00;5.47;;;13.90;56.30;;;;;;8300704;28;20218;-71
2021/05/08 06:41:57;;;;;;;8.43;4.73;;;14.40;55.40;;;;;;8316140;28;20498;-72
2021/05/08 06:45:59;;;;;;;6.67;4.70;;;15.00;53.10;;;;;;8325215;28;20868;-74
2021/05/08 06:50:00;;;;;;;10.40;4.57;;;15.40;51.40;;;;;;8324056;28;20226;-72
2021/05/08 06:54:01;;;;;;;7.60;5.60;;;15.50;50.30;;;;;;8315766;28;20480;-71
2021/05/08 06:58:01;;;;;;;5.80;4.87;;;15.60;50.60;;;;;;8299632;28;20334;-71
2021/05/08 07:02:04;;;;;;;10.10;5.13;;;15.90;50.30;;;;;;8298006;28;20199;-71
2021/05/08 07:06:04;;;;;;;10.80;6.50;;;16.30;50.00;;;;;;8319502;28;20292;-72
2021/05/08 07:10:05;;;;;;;7.90;4.97;;;16.70;49.80;;;;;;8318543;28;20452;-72
2021/05/08 07:14:08;;;;;;;7.60;4.40;;;17.10;47.60;;;;;;8314353;28;20660;-72
2021/05/08 07:18:10;;;;;;;9.33;4.80;;;17.00;48.30;;;;;;8294113;28;20479;-71
2021/05/08 07:22:10;;;;;;;5.53;4.50;;;16.70;47.80;;;;;;8300269;28;20517;-71
2021/05/08 07:26:11;;;;;;;7.07;4.80;;;16.50;48.90;;;;;;8297594;28;20452;-71
2021/05/08 07:30:12;;;;;;;7.40;4.20;;;16.30;47.30;;;;;;8313511;28;20190;-71
2021/05/08 07:34:13;;;;;;;4.00;3.60;;;16.10;48.40;;;;;;8315921;28;20188;-72
2021/05/08 07:38:20;;;;;;;5.77;3.50;;;15.90;48.90;;;;;;8319459;28;20476;-72
2021/05/08 07:42:23;;;;;;;5.93;4.10;;;15.80;49.20;;;;;;8319548;28;20184;-71
2021/05/08 07:46:24;;;;;;;4.73;4.00;;;15.80;49.80;;;;;;8302139;28;20435;-72
2021/05/08 07:50:26;;;;;;;8.70;3.63;;;15.90;49.60;;;;;;8309111;28;20537;-72
2021/05/08 07:54:26;;;;;;;6.10;4.97;;;16.10;49.80;;;;;;8320184;28;20678;-72
2021/05/08 07:58:27;;;;;;;8.20;4.40;;;16.30;48.80;;;;;;8308472;28;20986;-71
2021/05/08 08:02:28;;;;;;;6.97;4.07;;;16.50;48.60;;;;;;8309558;28;20247;-71
2021/05/08 08:06:28;;;;;;;6.93;4.13;;;16.70;49.00;;;;;;8326108;28;20189;-71
2021/05/08 08:10:29;;;;;;;6.20;3.83;;;16.80;47.40;;;;;;8321677;28;20194;-70
2021/05/08 08:14:29;;;;;;;4.10;3.53;;;16.90;48.00;;;;;;8315282;28;20189;-71
2021/05/08 08:18:30;;;;;;;5.10;3.23;;;17.10;47.50;;;;;;8317070;28;20262;-72
2021/05/08 08:22:31;;;;;;;6.87;3.77;;;17.30;46.70;;;;;;8315558;28;20224;-72
2021/05/08 08:26:35;;;;;;;7.27;4.27;;;17.50;46.00;;;;;;8300149;28;20190;-72
2021/05/08 08:30:37;;;;;;;4.40;4.10;;;17.80;46.00;;;;;;8309779;28;20195;-71
2021/05/08 08:34:38;;;;;;;3.70;3.40;;;18.30;45.20;;;;;;8338347;28;20442;-72
2021/05/08 08:38:39;;;;;;;3.50;3.20;;;18.60;44.60;;;;;;8301873;28;20490;-71
2021/05/08 08:42:40;;;;;;;4.23;3.30;;;18.60;43.60;;;;;;8308779;28;20515;-71
2021/05/08 08:46:42;;;;;;;3.83;3.43;;;18.70;42.90;;;;;;8304327;28;20314;-71
2021/05/08 08:50:46;;;;;;;6.33;3.37;;;18.80;42.60;;;;;;8305448;28;20457;-71
2021/05/08 08:54:49;;;;;;;3.50;3.20;;;18.90;42.20;;;;;;8283065;28;20481;-71
2021/05/08 08:58:56;;;;;;;4.43;3.40;;;18.70;41.90;;;;;;8302591;28;20474;-70
2021/05/08 09:02:57;;;;;;;5.00;3.67;;;18.70;43.00;;;;;;8301669;28;20897;-71
2021/05/08 09:06:59;;;;;;;5.43;3.47;;;19.00;42.10;;;;;;8292107;28;20462;-72
2021/05/08 09:11:20;;;;;;;4.03;3.43;;;19.20;42.00;;;;;;8310873;28;20446;-72
2021/05/08 09:15:42;;;;;;;4.70;3.57;;;19.60;42.60;;;;;;8310782;28;21005;-71
2021/05/08 09:19:53;;;;;;;3.20;2.87;;;19.80;41.30;;;;;;8309883;28;20459;-71
2021/05/08 09:23:59;;;;;;;4.23;2.90;;;19.90;41.40;;;;;;8304141;28;20474;-72
2021/05/08 09:28:04;;;;;;;14.40;3.83;;;20.20;41.40;;;;;;8291717;28;20444;-73
2021/05/08 09:32:08;;;;;;;6.33;2.77;;;20.50;41.40;;;;;;8306572;28;20445;-74
2021/05/08 09:36:12;;;;;;;4.20;3.00;;;20.70;39.70;;;;;;8284879;28;20463;-73
2021/05/08 09:40:25;;;;;;;10.17;3.13;;;20.40;39.70;;;;;;8306677;28;20437;-73
2021/05/08 09:44:26;;;;;;;13.10;4.80;;;20.40;40.00;;;;;;8320673;28;20447;-73
2021/05/08 09:48:30;;;;;;;17.20;5.10;;;20.90;39.40;;;;;;8291238;28;20478;-73
2021/05/08 09:52:43;;;;;;;11.93;3.47;;;21.50;38.70;;;;;;8307527;28;20966;-72
2021/05/08 09:56:45;;;;;;;5.73;2.60;;;21.70;39.00;;;;;;8286733;28;20480;-73
2021/05/08 10:00:47;;;;;;;3.07;2.77;;;21.70;39.00;;;;;;8294250;28;20447;-73
2021/05/08 10:04:50;;;;;;;3.07;2.87;;;21.60;38.10;;;;;;8286034;28;20443;-73
2021/05/08 10:08:50;;;;;;;2.67;2.40;;;21.70;38.50;;;;;;8290805;28;20421;-73
2021/05/08 10:12:54;;;;;;;7.17;3.83;;;21.60;39.00;;;;;;8304587;28;20527;-75
2021/05/08 16:53:18;;;;;;;3.20;2.87;;;18.40;69.60;;;;;;8365957;27;20607;-73
2021/05/08 16:57:19;;;;;;;4.07;3.10;;;19.50;67.20;;;;;;8344689;28;20443;-72
2021/05/08 17:01:20;;;;;;;5.67;3.07;;;20.60;64.00;;;;;;8372178;28;20216;-74
2021/05/08 17:05:20;;;;;;;7.47;2.43;;;21.20;61.80;;;;;;8335327;28;20202;-73
2021/05/08 17:09:21;;;;;;;3.80;2.30;;;21.50;60.80;;;;;;8343961;28;20184;-73
2021/05/08 17:13:22;;;;;;;3.10;2.73;;;21.50;60.30;;;;;;8336816;28;20713;-73
2021/05/08 17:17:22;;;;;;;5.37;2.37;;;21.20;60.60;;;;;;8372653;28;20208;-76
2021/05/08 17:21:23;;;;;;;3.00;2.80;;;21.00;61.00;;;;;;8347349;28;20211;-76
2021/05/08 17:25:24;;;;;;;3.17;2.87;;;20.90;61.50;;;;;;8347791;28;20191;-76
2021/05/08 17:29:26;;;;;;;6.00;2.23;;;20.80;62.00;;;;;;8348782;28;20203;-77
2021/05/08 17:33:26;;;;;;;4.63;2.57;;;20.70;62.00;;;;;;8349857;28;20188;-78
2021/05/08 17:37:27;;;;;;;3.77;2.37;;;20.70;62.10;;;;;;8347581;28;20449;-76
2021/05/08 17:41:32;;;;;;;9.00;3.73;;;20.70;62.60;;;;;;8360515;28;20203;-77
2021/05/08 17:45:33;;;;;;;9.07;2.93;;;20.60;62.80;;;;;;8367442;28;20221;-76
2021/05/08 17:49:34;;;;;;;3.00;2.70;;;20.60;63.20;;;;;;8350028;28;20515;-77
2021/05/08 17:53:35;;;;;;;2.53;2.07;;;20.50;63.10;;;;;;8354809;28;20645;-76
2021/05/08 17:57:35;;;;;;;2.03;1.83;;;20.50;63.20;;;;;;8353788;28;21056;-76
2021/05/08 18:01:39;;;;;;;3.33;2.83;;;20.50;63.60;;;;;;8348555;28;20648;-76
2021/05/08 18:05:40;;;;;;;2.83;2.63;;;20.40;63.70;;;;;;8332330;28;20199;-76
2021/05/08 18:09:41;;;;;;;6.90;4.50;;;20.40;63.90;;;;;;8333267;28;20472;-76
2021/05/08 18:13:42;;;;;;;2.90;2.60;;;20.30;63.90;;;;;;8328427;28;20657;-77
2021/05/08 18:17:45;;;;;;;4.20;3.83;;;20.20;64.10;;;;;;8341050;28;20196;-77
2021/05/08 18:21:47;;;;;;;2.57;2.40;;;20.20;64.50;;;;;;8332164;28;20442;-78
2021/05/08 18:25:48;;;;;;;3.40;2.50;;;20.10;64.70;;;;;;8331227;28;20497;-74
2021/05/08 18:29:48;;;;;;;4.40;2.60;;;20.10;64.90;;;;;;8332060;28;21107;-77
2021/05/08 18:33:49;;;;;;;9.23;3.50;;;20.00;65.20;;;;;;8335456;28;20240;-77
2021/05/08 18:37:53;;;;;;;3.27;3.00;;;19.90;65.40;;;;;;8334619;28;20176;-77
2021/05/08 18:41:53;;;;;;;3.10;2.80;;;19.90;65.70;;;;;;8335360;28;20439;-77
2021/05/08 18:45:54;;;;;;;6.20;4.70;;;19.80;66.30;;;;;;8331140;28;20442;-76
2021/05/08 18:49:57;;;;;;;7.60;4.37;;;19.80;66.20;;;;;;8337194;28;20219;-76
2021/05/08 18:53:58;;;;;;;4.67;3.73;;;19.70;66.90;;;;;;8335761;28;20492;-77
2021/05/08 18:57:59;;;;;;;3.30;3.00;;;19.60;67.20;;;;;;8332508;28;20448;-77
2021/05/08 19:01:59;;;;;;;3.37;2.70;;;19.50;67.60;;;;;;8336367;28;20195;-79
2021/05/08 19:06:00;;;;;;;4.63;2.97;;;19.40;67.90;;;;;;8326279;28;20290;-77
2021/05/08 19:10:00;;;;;;;3.60;3.40;;;19.40;68.40;;;;;;8321925;28;20217;-76
2021/05/08 19:14:01;;;;;;;7.37;3.57;;;19.30;68.80;;;;;;8322321;28;20183;-74
2021/05/08 19:18:02;;;;;;;5.33;3.00;;;19.20;69.00;;;;;;8326122;28;20243;-76
2021/05/08 19:22:04;;;;;;;3.40;3.10;;;19.20;69.30;;;;;;8333619;28;20194;-76
2021/05/08 19:26:05;;;;;;;4.50;3.00;;;19.20;69.60;;;;;;8330935;28;20450;-77
2021/05/08 19:30:09;;;;;;;4.33;3.20;;;19.10;69.70;;;;;;8329750;28;20821;-77
2021/05/08 19:34:10;;;;;;;3.40;3.00;;;19.10;70.00;;;;;;8322976;28;20187;-75
2021/05/08 19:38:11;;;;;;;3.30;3.00;;;19.10;70.20;;;;;;8328941;28;20488;-76
2021/05/08 19:42:12;;;;;;;7.97;3.73;;;19.10;70.50;;;;;;8323325;28;20263;-77
2021/05/08 19:46:14;;;;;;;7.97;3.90;;;19.00;70.60;;;;;;8326804;28;20241;-77
2021/05/08 19:50:16;;;;;;;4.23;3.50;;;19.00;70.80;;;;;;8328232;28;20557;-76
2021/05/08 19:54:17;;;;;;;4.40;4.00;;;19.00;70.90;;;;;;8325370;28;21354;-76
2021/05/08 19:58:17;;;;;;;6.60;4.60;;;19.00;71.00;;;;;;8325659;28;21004;-77
2021/05/08 20:02:19;;;;;;;5.53;3.50;;;18.90;71.30;;;;;;8329958;28;20196;-76
2021/05/08 20:06:19;;;;;;;10.20;3.90;;;18.90;71.50;;;;;;8325491;28;20203;-77
2021/05/08 20:10:23;;;;;;;7.03;4.60;;;18.80;71.60;;;;;;8328670;28;20475;-76
2021/05/08 20:14:24;;;;;;;4.90;4.10;;;18.80;72.00;;;;;;8332282;28;20583;-77
2021/05/08 20:18:26;;;;;;;6.43;4.93;;;18.80;72.40;;;;;;8330922;28;20946;-76
2021/05/08 20:22:27;;;;;;;4.57;4.13;;;18.70;72.90;;;;;;8321828;28;20183;-77
2021/05/08 20:26:27;;;;;;;5.73;4.13;;;18.60;73.50;;;;;;8327432;28;20455;-76
2021/05/08 20:30:28;;;;;;;5.77;5.20;;;18.60;74.10;;;;;;8328223;28;20215;-76
2021/05/08 20:34:29;;;;;;;5.30;4.80;;;18.50;74.50;;;;;;8330088;28;20179;-76
2021/05/08 20:38:30;;;;;;;13.40;6.10;;;18.40;74.70;;;;;;8333396;28;20479;-76
2021/05/08 20:42:32;;;;;;;3.87;3.47;;;18.30;74.80;;;;;;8326969;28;20204;-76
2021/05/08 20:46:33;;;;;;;5.33;4.13;;;18.20;74.80;;;;;;8346025;28;20196;-77
2021/05/08 20:50:33;;;;;;;4.70;3.73;;;18.10;75.30;;;;;;8327309;28;20484;-77
2021/05/08 20:54:37;;;;;;;8.00;3.90;;;17.90;75.50;;;;;;8334089;28;20642;-77
2021/05/08 20:58:45;;;;;;;7.60;3.67;;;17.80;76.00;;;;;;8335722;28;20279;-77
2021/05/08 21:02:53;;;;;;;3.30;3.00;;;17.60;76.40;;;;;;8333897;28;20439;-79
2021/05/08 21:07:05;;;;;;;4.53;3.30;;;17.50;76.90;;;;;;8319935;28;20462;-77
2021/05/08 21:11:08;;;;;;;3.53;3.30;;;17.40;77.50;;;;;;8334560;28;20458;-78
2021/05/08 21:15:11;;;;;;;4.77;3.13;;;17.20;78.20;;;;;;8334717;28;20438;-77
2021/05/08 21:19:13;;;;;;;4.40;2.97;;;17.20;78.70;;;;;;8327865;28;20458;-77
2021/05/08 21:23:19;;;;;;;4.20;2.90;;;17.10;79.20;;;;;;8317812;28;20449;-76
2021/05/08 21:27:20;;;;;;;4.27;2.87;;;17.00;79.60;;;;;;8311907;28;20470;-76
2021/05/08 21:31:24;;;;;;;2.80;2.60;;;17.00;80.30;;;;;;8328676;28;20469;-77
2021/05/08 21:35:28;;;;;;;4.20;3.37;;;16.90;80.60;;;;;;8333309;28;20181;-77
2021/05/08 21:39:29;;;;;;;3.50;3.10;;;16.80;81.00;;;;;;8333316;28;20481;-76
2021/05/08 21:43:33;;;;;;;3.30;3.10;;;16.70;81.50;;;;;;8335218;28;20438;-76
2021/05/08 21:47:36;;;;;;;3.77;3.47;;;16.70;81.70;;;;;;8339039;28;20736;-77
2021/05/08 21:51:36;;;;;;;3.37;3.17;;;16.60;81.90;;;;;;8331957;28;20466;-77
2021/05/08 21:55:40;;;;;;;5.13;3.60;;;16.50;82.30;;;;;;8336581;28;20504;-78
2021/05/08 21:59:45;;;;;;;4.90;3.73;;;16.40;82.80;;;;;;8344760;28;20185;-77
2021/05/08 22:03:45;;;;;;;4.73;3.83;;;16.30;83.30;;;;;;8332597;28;20442;-76
2021/05/08 22:07:46;;;;;;;4.03;3.47;;;16.30;83.80;;;;;;8352204;28;20442;-76
2021/05/08 22:11:47;;;;;;;3.40;3.13;;;16.20;84.10;;;;;;8327818;28;20342;-77
2021/05/08 22:15:48;;;;;;;4.77;3.63;;;16.10;84.50;;;;;;8326177;28;20184;-76
2021/05/08 22:19:48;;;;;;;3.03;2.83;;;16.00;84.80;;;;;;8328457;28;20202;-77
2021/05/08 22:23:49;;;;;;;3.70;3.40;;;16.00;85.00;;;;;;8328675;28;20190;-77
2021/05/08 22:27:49;;;;;;;4.90;3.50;;;15.90;85.20;;;;;;8332622;28;20322;-77
2021/05/08 22:31:52;;;;;;;7.30;3.10;;;15.90;85.60;;;;;;8330025;28;20219;-77
2021/05/08 22:35:53;;;;;;;4.37;3.30;;;15.90;85.90;;;;;;8330101;28;20203;-77
2021/05/08 22:39:55;;;;;;;3.73;3.40;;;15.90;85.80;;;;;;8329289;28;20554;-77
2021/05/08 22:43:56;;;;;;;5.27;3.93;;;16.00;85.60;;;;;;8325187;28;20607;-77
2021/05/08 22:47:57;;;;;;;4.80;3.27;;;16.00;85.40;;;;;;8327861;28;22801;-77
2021/05/08 22:51:57;;;;;;;3.50;3.10;;;16.00;85.50;;;;;;8329976;28;20219;-77
2021/05/08 22:55:58;;;;;;;2.93;2.73;;;15.90;85.70;;;;;;8332182;28;20215;-77
2021/05/08 23:00:00;;;;;;;5.43;3.80;;;15.90;86.00;;;;;;8333972;28;20230;-76
2021/05/08 23:04:00;;;;;;;3.50;3.20;;;15.80;86.30;;;;;;8326416;28;20188;-76
2021/05/08 23:08:01;;;;;;;9.50;3.23;;;15.70;86.60;;;;;;8331217;28;20475;-76
2021/05/08 23:12:02;;;;;;;4.73;4.10;;;15.60;87.00;;;;;;8325456;28;20310;-76
2021/05/08 23:16:02;;;;;;;3.23;2.80;;;15.40;87.50;;;;;;8332771;28;20195;-76
2021/05/08 23:20:04;;;;;;;3.90;3.60;;;15.20;88.00;;;;;;8333173;28;20199;-77
2021/05/08 23:24:07;;;;;;;3.30;2.80;;;15.10;88.50;;;;;;8338675;28;20195;-77
2021/05/08 23:28:08;;;;;;;6.30;2.90;;;15.10;88.90;;;;;;8335030;28;20845;-76
2021/05/08 23:32:09;;;;;;;3.57;3.10;;;15.10;89.10;;;;;;8338242;28;20853;-76
2021/05/08 23:36:09;;;;;;;4.63;3.33;;;15.10;89.10;;;;;;8333414;28;20669;-77
2021/05/08 23:40:13;;;;;;;4.20;3.83;;;15.10;89.20;;;;;;8334667;28;20191;-77
2021/05/08 23:44:14;;;;;;;3.13;2.93;;;15.10;89.20;;;;;;8330470;28;20186;-76
2021/05/08 23:48:15;;;;;;;7.37;3.20;;;15.10;89.10;;;;;;8330970;28;20450;-76
2021/05/08 23:52:16;;;;;;;4.53;3.40;;;15.20;89.00;;;;;;8327194;28;20211;-77
2021/05/08 23:56:19;;;;;;;5.27;3.60;;;15.20;88.90;;;;;;8328983;28;20438;-76
